WetterOnline ( https://www.wetteronline.de )

Wetter aktuell Cuxhaven

Aktuelles Wetter: Cuxhaven (12m)

6-stündlich | Neueste Meldungen
Ortszeit Temperatur Wetter
Sa, 29.01. 7:00 7.9° C bedeckt
Sa, 29.01. 1:00 6.0° C leichter Regen
Fr, 28.01. 19:00 5.3° C bewölkt
Fr, 28.01. 13:00 6.2° C wolkig
Fr, 28.01. 7:00 5.5° C bedeckt
Fr, 28.01. 1:00 6.0° C bewölkt
Do, 27.01. 19:00 6.0° C leicht bewölkt
Do, 27.01. 13:00 7.9° C wolkig
Ortszeit Temperatur Wetter
Sa, 29.01. 11:30 8.7° C bedeckt
Sa, 29.01. 11:20 8.7° C bedeckt
Sa, 29.01. 11:10 8.6° C bedeckt
Sa, 29.01. 11:00 8.3° C bedeckt
Sa, 29.01. 10:50 8.3° C bedeckt
Sa, 29.01. 10:40 8.1° C bedeckt
Sa, 29.01. 10:30 7.9° C bedeckt
Sa, 29.01. 10:00 7.8° C bedeckt
Sa, 29.01. 9:30 7.7° C bedeckt
Sa, 29.01. 9:00 7.6° C bedeckt
Sa, 29.01. 8:30 7.6° C bedeckt
Ortszeit Relative Feuchte Sichtweite
Sa, 29.01. 7:00 92% 10 km
Sa, 29.01. 1:00 86% 11 km
Fr, 28.01. 19:00 74% 21 km
Fr, 28.01. 13:00 73% 18 km
Fr, 28.01. 7:00 69% 15 km
Fr, 28.01. 1:00 73% 15 km
Do, 27.01. 19:00 76% 18 km
Do, 27.01. 13:00 88% 12 km
Ortszeit Relative Feuchte Sichtweite
Sa, 29.01. 11:30 90% 21 km
Sa, 29.01. 11:20 90% -
Sa, 29.01. 11:10 91% -
Sa, 29.01. 11:00 94% 13 km
Sa, 29.01. 10:50 94% -
Sa, 29.01. 10:40 95% -
Sa, 29.01. 10:30 96% 8 km
Sa, 29.01. 10:00 97% 3.7 km
Sa, 29.01. 9:30 97% 4.3 km
Sa, 29.01. 9:00 97% 3.1 km
Sa, 29.01. 8:30 97% 2.2 km
Ortszeit Niederschlagsmenge Niederschlagsart
Sa, 29.01. 7:00 2 l/m2 in 12 Std. Regen
Sa, 29.01. 1:00 0.1 l/m2 in 6 Std. Regen
Fr, 28.01. 19:00 0.0 l/m2 in 12 Std. -
Fr, 28.01. 13:00 0.0 l/m2 in 6 Std. -
Fr, 28.01. 7:00 0.1 l/m2 in 12 Std. Regen
Fr, 28.01. 1:00 0.1 l/m2 in 6 Std. Regen
Do, 27.01. 19:00 2 l/m2 in 12 Std. Regen
Do, 27.01. 13:00 2 l/m2 in 6 Std. Regen
Ortszeit Niederschlagsmenge Niederschlagsart
Sa, 29.01. 11:30 0.0 l/m2 in 1 Std. -
Sa, 29.01. 11:20 keine Meldung -
Sa, 29.01. 11:10 keine Meldung -
Sa, 29.01. 11:00 0.0 l/m2 in 1 Std. -
Sa, 29.01. 10:50 keine Meldung -
Sa, 29.01. 10:40 keine Meldung -
Sa, 29.01. 10:30 0.0 l/m2 in 1 Std. -
Sa, 29.01. 10:00 0.0 l/m2 in 1 Std. -
Sa, 29.01. 9:30 0.0 l/m2 in 1 Std. -
Sa, 29.01. 9:00 0.0 l/m2 in 1 Std. -
Sa, 29.01. 8:30 0.0 l/m2 in 1 Std. -
Ortszeit Stärke Spitze Richtung
km/h Bft. km/h Grad Sektor
Sa, 29.01. 7:00 35 5 61 250° W
Sa, 29.01. 1:00 20 4 43 230° SW
Fr, 28.01. 19:00 14 3 40 230° SW
Fr, 28.01. 13:00 29 5 61 300° NW
Fr, 28.01. 7:00 33 5 69 310° NW
Fr, 28.01. 1:00 43 6 76 300° NW
Do, 27.01. 19:00 40 6 68 290° W
Do, 27.01. 13:00 32 5 68 270° W
Ortszeit Stärke Spitze Richtung
km/h Bft. km/h Grad Sektor
Sa, 29.01. 11:30 33 5 67 250° W
Sa, 29.01. 11:20 33 5 - 250° W
Sa, 29.01. 11:10 37 5 - 250° W
Sa, 29.01. 11:00 35 5 65 250° W
Sa, 29.01. 10:50 35 5 - 250° W
Sa, 29.01. 10:40 39 6 - 240° SW
Sa, 29.01. 10:30 32 5 65 250° W
Sa, 29.01. 10:00 35 5 65 250° W
Sa, 29.01. 9:30 33 5 59 250° W
Sa, 29.01. 9:00 33 5 69 250° W
Sa, 29.01. 8:30 35 5 69 250° W
Ortszeit Untergrenze Bedeckung Gattung
total tief tief mittel hoch
Sa, 29.01. 7:00 240 m 8/8 8/8 - - -
Sa, 29.01. 1:00 360 m 8/8 8/8 - - -
Fr, 28.01. 19:00 870 m 7/8 7/8 - - -
Fr, 28.01. 13:00 5100 m 7/8 7/8 - - -
Fr, 28.01. 7:00 1080 m 8/8 8/8 - - -
Fr, 28.01. 1:00 870 m 7/8 7/8 - - -
Do, 27.01. 19:00 960 m 2/8 1/8 - - -
Do, 27.01. 13:00 540 m 5/8 5/8 - - -
Ortszeit Bedeckungsgrad in Achtel und Wolkenuntergrenze
Sa, 29.01. 11:30 8(330m)
Sa, 29.01. 11:20 8(330m)
Sa, 29.01. 11:10 8
Sa, 29.01. 11:00 8(180m)
Sa, 29.01. 10:50 8(180m)
Sa, 29.01. 10:40 8
Sa, 29.01. 10:30 8(120m)
Sa, 29.01. 10:00 8(120m)
Sa, 29.01. 9:30 8(120m)
Sa, 29.01. 9:00 8(120m)
Sa, 29.01. 8:30 8(120m)
Ortszeit Luftdruck NN (hPa) Tendenz (hPa in 3 Std.)
Sa, 29.01. 7:00 1016 - 2,7
Sa, 29.01. 1:00 1023 - 3,8
Fr, 28.01. 19:00 1029 - 0,9
Fr, 28.01. 13:00 1030 + 1,6
Fr, 28.01. 7:00 1026 + 3,1
Fr, 28.01. 1:00 1020 + 2,9
Do, 27.01. 19:00 1015 + 1,0
Do, 27.01. 13:00 1014 + 0,2
Ortszeit Luftdruck NN (hPa) Tendenz (hPa in 3 Std.)
Sa, 29.01. 11:30 1013 - 3,0
Sa, 29.01. 11:20 1013 keine Meldung
Sa, 29.01. 11:10 1013 keine Meldung
Sa, 29.01. 11:00 1013 - 2,8
Sa, 29.01. 10:50 1013 keine Meldung
Sa, 29.01. 10:40 1014 keine Meldung
Sa, 29.01. 10:30 1014 - 1,9
Sa, 29.01. 10:00 1014 - 1,9
Sa, 29.01. 9:30 1015 - 1,7
Sa, 29.01. 9:00 1015 - 1,6
Sa, 29.01. 8:30 1016 - 1,9
Ortszeit Schneehöhe (cm)
Sa, 29.01. 7:00 0
Sa, 29.01. 1:00 0
Fr, 28.01. 19:00 0
Fr, 28.01. 13:00 0
Fr, 28.01. 7:00 0
Fr, 28.01. 1:00 0
Do, 27.01. 19:00 0
Do, 27.01. 13:00 0
Ortszeit Schneehöhe (cm)
Sa, 29.01. 11:30 0
Sa, 29.01. 11:20 0
Sa, 29.01. 11:10 0
Sa, 29.01. 11:00 0
Sa, 29.01. 10:50 0
Sa, 29.01. 10:40 0
Sa, 29.01. 10:30 0
Sa, 29.01. 10:00 0
Sa, 29.01. 9:30 0
Sa, 29.01. 9:00 0
Sa, 29.01. 8:30 0
Link zu dieser Seite / Seite empfehlen

Das Wetter in ...